Warning: Javascript must be enabled to use all the features on this page!


Page Loading - Please Wait...

Click to hideNews Bulletins

Peak Streamflow for the Nation

USGS 01371500 WALLKILL RIVER AT GARDINER NY

Ulster County, New York
Hydrologic Unit Code 02020007
Latitude  41°41'10.1", Longitude  74°09'55.0" NAD83
Drainage area 695  square miles
Contributing drainage area 695  square miles
Gage datum 183.70 feet above NAVD88
Output formats
Table
Graph
Tab-separated file
peakfq (watstore) format
Reselect output format
Water
Year
Date Gage
Height
(feet)
Stream-
flow
(cfs)
1925 1925-02-12 13.311 8,500
1926 1926-03-03 11.701 5,500
1927 1927-09-02 12.60 12,900
1928 1927-11-03 11.70 11,400
1929 1929-03-06 10.40 9,450
1930 1930-09-17 8.052 5,970
1931 1931-06-17 8.762 6,990
1932 1932-04-01 8.97 7,300
1933 1932-11-20 11.19 10,600
1934 1934-09-17 9.992 8,840
1935 1934-12-01 8.452 6,530
1936 1936-03-12 15.162 18,000
1937 1937-05-15 9.42 8,500
1938 1938-09-22 14.92 17,500
1939 1938-12-06 11.082 11,200
1940 1940-03-31 12.602 13,700
1941 1940-12-29 8.502 6,600
1942 1942-03-09 8.34 6,380
1943 1942-12-30 12.852 13,000
1944 1943-11-09 10.41 9,320
1945 1945-07-23 13.432 13,900
1946 1946-05-28 8.942 7,330
1947 1947-04-06 9.35 8,100
1948 1948-03-17 12.282 13,700
1949 1948-12-31 14.81 21,000
1950 1950-03-09 8.972 7,690
1951 1951-03-31 11.742 12,600
1952 1952-06-01 14.88 21,200
1953 1953-01-24 11.93 13,000
1954 1953-12-07 9.81 8,810
1955 1955-08-19 19.77 30,6009
1956 1955-10-16 19.81 30,800
1957 1957-04-06 9.122 7,160
1958 1957-12-21 10.482 9,270
1959 1959-03-06 9.162 7,740
1960 1960-09-13 10.89 10,200
1961 1961-02-28 12.441,2 11,000
1962 1962-03-15   9,8002
1963 1963-03-19   7,0002
1964 1964-01-26 13.931 8,0002
1965 1965-02-09 11.212 8,200
1966 1966-02-14   7,0002
1967 1967-03-29 8.912 7,020
1968 1968-05-29 13.13 13,800
1969 1969-02-01 10.292 9,410
1970 1970-04-03 12.99 13,500
1971 1971-02-28 14.871 13,0002
1972 1972-06-01 10.972 11,400
1973 1973-06-30 12.43 13,900
1974 1973-12-21 12.80 14,600
1975 1975-02-25 11.60 13,400
1976 1976-01-28 15.521 9,500
1977 1977-03-23 11.902 14,100
1978 1977-11-09 13.522 17,500
1979 1979-01-25 16.682 17,0002
1980 1980-03-22 12.92 14,600
1981 1981-05-12 10.092 9,360
1982 1982-02-04 12.271 8,0002
1983 1983-04-17 11.55 13,400
1984 1984-04-06 12.622 16,000
1985 1985-09-28 6.882 5,140
1986 1986-03-15 11.752 14,100
1987 1987-04-05 11.73 14,000
1988 1988-02-03 8.902,5 8,9002
1989 1989-05-17 10.10 11,000
1990 1989-10-21 10.372 11,500
1991 1990-12-04 9.04 9,110
1992 1992-06-06 10.10 11,000
1993 1993-03-29 11.28 13,200
1994 1994-03-24 9.362 9,660
1995 1995-03-09 10.16 11,100
1996 1996-01-28 14.152 19,000
1997 1996-10-20 10.272 11,300
1998 1998-06-16 9.80 10,400
1999 1999-03-22 10.822 12,300
2000 2000-06-07 9.422 9,770
2001 2000-12-17 12.23 15,000
2002 2002-05-14 7.11 5,800
2003 2003-03-21 9.64 10,200
2004 2003-10-29 9.622 10,100
2005 2005-04-03 13.81 19,200
2006 2005-10-13 12.79 17,000
2007 2007-04-16 14.87 23,600
2008 2008-03-09 13.87 20,800
2009 2008-12-12 11.33 14,100
2010 2010-03-14 11.23 13,900
2011 2011-08-28 18.92 30,3009
2012 2011-12-08 10.06 11,600
2013 2013-08-09 11.39 14,200
2014 2014-05-01 9.742 11,000
2015 2015-07-01 6.612 5,510
2016 2016-02-25 9.52 10,700
2017 2017-04-01 8.26 8,500
2018 2018-03-02 9.77 11,200
2019 2018-11-03 8.822 9,480
2020 2019-12-14 7.82 7,740
2021 2021-09-02 12.90 16,9009
?
  Peak Gage-Height Qualification Codes.
?
  Peak Streamflow Qualification Codes.